• Join FlightAware (Why Join?)
  • Login
  • US Flag 
10:20PM EDT


 

Airport Tracker/Info


-or-


 

Live Flight TrackerFlight Track Log ✈ AAL2467 ✈ 20-Apr-2013 ✈ KDFW - KLAX

Flight Track Log - Related Links

Times and Time Zones

All times are in EDT time to prevent confusion due to time zone crossing. See the AAL2467 flight status page for this flight to view local times or setup timezone preferences in your user account.

Time Position Orientation Groundspeed Altitude Reporting Facility
EDT Latitude Longitude Course Direction KTS MPH feet Rate Location/Type
07:25PM 32.8360 -97.0530 179° South 224 258 2,900  Level FlightAware
07:25PM 32.8100 -97.0530 180° South 237 273 4,000 2,820 Climbing FlightAware
07:26PM 32.7770 -97.0570 186° South 244 281 5,500 2,880 Climbing FlightAware
07:26PM 32.7610 -97.0690 212° Southwest 261 300 6,200 2,880 Climbing FlightAware
07:26PM 32.7540 -97.0800 233° Southwest 268 308 6,700 3,600 Climbing FlightAware
07:27PM 32.7490 -97.1020 255° West 268 308 7,700 3,600 Climbing FlightAware
07:27PM 32.7540 -97.1440 278° West 264 304 9,400 2,280 Climbing FlightAware
07:28PM 32.7630 -97.1820 286° West 287 330 9,800 840 Climbing FlightAware
07:28PM 32.7660 -97.1980 283° West 304 350 9,900 1,500 Climbing FlightAware
07:29PM 32.7830 -97.2850 283° West 342 394 11,300 2,100 Climbing FlightAware
07:29PM 32.7960 -97.3600 282° West 349 402 13,100 2,940 Climbing FlightAware
07:30PM 32.8120 -97.4440 283° West 352 405 15,500 2,880 Climbing FlightAware
07:31PM 32.8270 -97.5200 283° West 362 417 17,200 2,580 Climbing FlightAware
07:31PM 32.8410 -97.5980 282° West 367 422 19,000 2,520 Climbing FlightAware
07:32PM 32.8560 -97.6780 283° West 373 429 20,600 2,220 Climbing FlightAware
07:33PM 32.8660 -97.7670 278° West 378 435 22,200 2,220 Climbing FlightAware
07:33PM 32.8650 -97.8600 269° West 378 435 24,000 2,160 Climbing FlightAware
07:34PM 32.8650 -97.9120 270° West 383 441 25,100 1,740 Climbing FlightAware
07:35PM 32.8640 -97.9480 268° West 385 443 26,200 1,740 Climbing FlightAware
07:35PM 32.8630 -98.1190 270° West 394 453 27,600 2,100 Climbing FlightAware
07:36PM 32.8620 -98.1790 269° West 388 447 29,400 1,440 Climbing FlightAware
07:37PM 32.8610 -98.3240 270° West 382 440 30,000 420 Climbing FlightAware
07:38PM 32.8600 -98.3780 269° West 382 440 30,000  Level FlightAware
07:38PM 32.8590 -98.4500 269° West 382 440 30,000  Level FlightAware
07:39PM 32.8580 -98.5210 269° West 382 440 30,000  Level FlightAware
07:40PM 32.8570 -98.5930 269° West 382 440 30,000  Level FlightAware
07:40PM 32.8550 -98.6820 268° West 382 440 30,000  Level FlightAware
07:41PM 32.8530 -98.8690 269° West 391 450 30,000  Level FlightAware
07:42PM 32.8520 -98.9660 269° West 390 449 30,000  Level FlightAware
07:43PM 32.8500 -99.0600 269° West 389 448 30,000  Level FlightAware
07:43PM 32.8490 -99.1420 269° West 388 447 30,000  Level FlightAware
07:44PM 32.8460 -99.2560 268° West 387 445 30,000  Level FlightAware
07:45PM 32.8450 -99.3450 269° West 388 447 30,000  Level FlightAware
07:46PM 32.8430 -99.4420 269° West 389 448 30,000  Level FlightAware
07:46PM 32.8410 -99.5290 268° West 391 450 30,000  Level FlightAware
07:47PM 32.8490 -99.6220 276° West 391 450 30,000  Level FlightAware
07:48PM 32.8860 -99.7220 294° West 392 451 30,000  Level FlightAware
07:49PM 32.9110 -99.7890 294° West 392 451 30,000  Level FlightAware
07:49PM 32.9360 -99.8560 294° West 392 451 30,000  Level FlightAware
07:50PM 32.9610 -99.9230 294° West 392 451 30,000  Level FlightAware
07:51PM 32.9930 -100.0070 294° West 392 451 30,000  Level FlightAware
07:52PM 33.0180 -100.0740 294° West 392 451 30,000  Level FlightAware
07:52PM 33.0430 -100.1410 294° West 392 451 30,000  Level FlightAware
07:53PM 33.0680 -100.2090 294° West 392 451 30,000  Level FlightAware
07:54PM 33.0930 -100.2760 294° West 392 451 30,000  Level FlightAware
07:54PM 33.1180 -100.3430 294° West 392 451 30,000  Level FlightAware
07:55PM 33.1490 -100.4270 294° West 392 451 30,000  Level FlightAware
07:56PM 33.1740 -100.4940 294° West 392 451 30,000  Level FlightAware
07:56PM 33.1990 -100.5620 294° West 392 451 30,000  Level FlightAware
07:57PM 33.2250 -100.6290 295° West 392 451 30,000  Level FlightAware
07:58PM 33.2844 -100.8750 295° West 397 457 30,000  Level Fort Worth Center
07:59PM 33.3228 -100.9908 292° West 392 451 30,000  Level Fort Worth Center
08:00PM 33.3653 -101.1144 292° West 381 438 30,000  Level Fort Worth Center
08:01PM 33.4033 -101.2303 292° West 376 433 30,000  Level Fort Worth Center
08:02PM 33.4417 -101.3464 292° West 376 433 30,000  Level Fort Worth Center
08:03PM 33.4794 -101.4678 290° West 376 433 30,000  Level Fort Worth Center
08:04PM 33.5172 -101.5892 290° West 381 438 30,000  Level Fort Worth Center
08:05PM 33.5511 -101.7003 290° West 390 449 30,000  Level Fort Worth Center
08:06PM 33.5906 -101.8219 291° West 397 457 30,000  Level Fort Worth Center
08:07PM 33.6281 -101.9436 290° West 391 450 30,000  Level Fort Worth Center
08:08PM 33.6653 -102.0678 290° West 399 459 30,000  Level Fort Worth Center
08:09PM 33.7081 -102.2022 291° West 394 453 30,000  Level Fort Worth Center
08:10PM 33.7417 -102.3092 291° West 394 453 30,000  Level Fort Worth Center
08:11PM 33.7842 -102.4464 290° West 394 453 30,000  Level Fort Worth Center
08:12PM 33.8172 -102.5558 290° West 394 453 30,000  Level Fort Worth Center
08:12PM 33.8475 -102.6453 292° West 386 444 30,000  Level Albuquerque Center
08:14PM 33.8842 -102.7650 290° West 383 441 30,000  Level Albuquerque Center
08:15PM 33.9217 -102.8839 291° West 381 438 30,000  Level Albuquerque Center
08:16PM 33.9578 -103.0053 290° West 384 442 30,000  Level Albuquerque Center
08:17PM 33.9961 -103.1217 292° West 380 437 30,000  Level Albuquerque Center
08:18PM 34.0389 -103.2664 290° West 382 440 30,000  Level Albuquerque Center
08:19PM 34.0747 -103.3867 290° West 383 441 30,000 420 Level Albuquerque Center
08:20PM 34.1103 -103.5086 289° West 385 443 30,900 1,020 Climbing Albuquerque Center
08:21PM 34.1478 -103.6333 290° West 393 452 32,200 1,500 Climbing Albuquerque Center
08:22PM 34.1844 -103.7636 289° West 389 448 34,000 840 Climbing Albuquerque Center
08:23PM 34.2192 -103.8842 289° West 381 438 34,000  Level Albuquerque Center
08:24PM 34.2547 -104.0025 290° West 374 430 34,000  Level Albuquerque Center
08:25PM 34.2903 -104.1206 290° West 371 427 34,000  Level Albuquerque Center
08:26PM 34.3247 -104.2389 289° West 370 426 34,000  Level Albuquerque Center
08:27PM 34.3597 -104.3592 289° West 372 428 34,000  Level Albuquerque Center
08:28PM 34.3950 -104.4783 290° West 372 428 34,000  Level Albuquerque Center
08:29PM 34.4228 -104.5997 286° West 372 428 34,000 -240 Level Albuquerque Center
08:30PM 34.4386 -104.7275 279° West 377 434 33,600 -540 Descending Albuquerque Center
08:31PM 34.4572 -104.8528 280° West 375 432 33,000 -600 Descending Albuquerque Center
08:32PM 34.4728 -104.9794 279° West 375 432 32,400 -180 Descending Albuquerque Center
08:37PM 34.5650 -105.6680 279° West 376 433 32,000 -120 Descending FlightAware
08:38PM 34.5750 -105.7480 279° West 374 430 32,000  Level FlightAware
08:39PM 34.5880 -105.8440 279° West 373 429 32,000  Level FlightAware
08:40PM 34.6000 -105.9490 278° West 371 427 32,000  Level FlightAware
08:40PM 34.6110 -106.0260 280° West 372 428 32,000  Level FlightAware
08:41PM 34.6210 -106.1090 278° West 370 426 32,000  Level FlightAware
08:42PM 34.6350 -106.2170 279° West 378 435 32,000  Level FlightAware
08:42PM 34.6450 -106.3000 278° West 378 435 32,000  Level FlightAware
08:43PM 34.6570 -106.3930 279° West 379 436 32,000  Level FlightAware
08:44PM 34.6670 -106.4750 278° West 375 432 32,000  Level FlightAware
08:44PM 34.6790 -106.5720 279° West 371 427 32,000  Level FlightAware
08:45PM 34.6880 -106.6510 278° West 373 429 32,000  Level FlightAware
08:46PM 34.6990 -106.7360 279° West 369 425 32,000  Level FlightAware
08:47PM 34.7100 -106.8270 278° West 369 425 32,000  Level FlightAware
08:47PM 34.7210 -106.9210 278° West 370 426 32,000  Level FlightAware
08:48PM 34.7310 -107.0030 278° West 370 426 32,000  Level FlightAware
08:49PM 34.7400 -107.0840 278° West 371 427 32,000  Level FlightAware
08:49PM 34.7510 -107.1760 278° West 371 427 32,000  Level FlightAware
08:50PM 34.7610 -107.2600 278° West 375 432 32,000  Level FlightAware
08:51PM 34.7700 -107.3420 278° West 376 433 32,000  Level FlightAware
08:51PM 34.7810 -107.4390 278° West 377 434 32,000  Level FlightAware
08:52PM 34.7910 -107.5220 278° West 378 435 32,000  Level FlightAware
08:53PM 34.8010 -107.6150 277° West 376 433 32,000  Level FlightAware
08:54PM 34.8110 -107.6990 278° West 374 430 32,000  Level FlightAware
08:54PM 34.8200 -107.7820 278° West 372 428 32,000  Level FlightAware
08:55PM 34.8310 -107.8760 278° West 370 426 32,000  Level FlightAware
08:56PM 34.8400 -107.9580 278° West 369 425 32,000  Level FlightAware
08:56PM 34.8470 -108.0280 277° West 373 429 32,000  Level FlightAware
08:57PM 34.8590 -108.1330 278° West 374 430 32,000  Level FlightAware
08:58PM 34.8670 -108.2080 277° West 374 430 32,000  Level FlightAware
08:58PM 34.8780 -108.3120 277° West 374 430 32,000  Level FlightAware
08:59PM 34.8870 -108.3950 278° West 375 432 32,000  Level FlightAware
09:00PM 34.8970 -108.4840 278° West 376 433 32,000  Level FlightAware
09:00PM 34.9050 -108.5610 277° West 378 435 32,000  Level FlightAware
09:01PM 34.9130 -108.6440 277° West 378 435 32,000  Level FlightAware
09:02PM 34.9200 -108.7160 277° West 378 435 32,000  Level FlightAware
09:03PM 34.9280 -108.7880 278° West 378 435 32,000  Level FlightAware
09:03PM 34.9350 -108.8600 277° West 378 435 32,000  Level FlightAware
09:04PM 34.9440 -108.9500 277° West 378 435 32,000  Level FlightAware
09:05PM 34.9510 -109.0220 277° West 378 435 32,000  Level FlightAware
09:05PM 34.9580 -109.0940 277° West 378 435 32,000  Level FlightAware
09:06PM 34.9660 -109.1660 278° West 378 435 32,000  Level FlightAware
09:07PM 34.9730 -109.2380 277° West 378 435 32,000  Level FlightAware
09:08PM 34.9820 -109.3280 277° West 378 435 32,000  Level FlightAware
09:08PM 34.9890 -109.4000 277° West 378 435 32,000  Level FlightAware
09:09PM 34.9960 -109.4720 277° West 378 435 32,000  Level FlightAware
09:10PM 35.0040 -109.5440 278° West 378 435 32,000  Level FlightAware
09:10PM 35.0130 -109.6340 277° West 378 435 32,000  Level FlightAware
09:13PM 34.8940 -110.1890 255° West 32,000  Level FlightAware
09:14PM 34.8880 -110.2530 263° West 397 457 32,000  Level FlightAware
09:14PM 34.8820 -110.3290 265° West 397 457 32,000  Level FlightAware
09:15PM 34.8610 -110.4820 261° West 398 458 32,000  Level FlightAware
09:16PM 34.8510 -110.5570 261° West 398 458 32,000  Level FlightAware
09:17PM 34.8340 -110.7120 262° West 399 459 32,000  Level FlightAware
09:18PM 34.8230 -110.8020 262° West 400 460 32,000  Level FlightAware
09:18PM 34.8110 -110.8990 261° West 400 460 32,000  Level FlightAware
09:19PM 34.7970 -111.0190 262° West 401 461 32,000  Level FlightAware
09:20PM 34.7820 -111.1350 261° West 398 458 32,000  Level FlightAware
09:21PM 34.7740 -111.2000 261° West 397 457 32,000  Level FlightAware
09:21PM 34.7640 -111.2810 261° West 399 459 32,000  Level FlightAware
09:22PM 34.7510 -111.3800 261° West 403 464 32,000  Level FlightAware
09:23PM 34.7380 -111.4880 262° West 407 468 32,000  Level FlightAware
09:23PM 34.7270 -111.5710 261° West 407 468 32,000  Level FlightAware
09:24PM 34.7140 -111.6720 261° West 408 470 32,000  Level FlightAware
09:25PM 34.6930 -111.8310 261° West 405 466 32,000  Level FlightAware
09:26PM 34.6760 -111.9660 261° West 405 466 32,000  Level FlightAware
09:27PM 34.6650 -112.0440 260° West 405 466 32,000  Level FlightAware
09:28PM 34.6530 -112.1400 261° West 408 470 32,000  Level FlightAware
09:29PM 34.6310 -112.2990 260° West 409 471 32,000  Level FlightAware
09:29PM 34.6180 -112.4000 261° West 411 473 32,000  Level FlightAware
09:30PM 34.6050 -112.4930 260° West 412 474 32,000  Level FlightAware
09:31PM 34.5900 -112.6010 260° West 413 475 32,000  Level FlightAware
09:31PM 34.5800 -112.6730 260° West 414 476 32,000  Level FlightAware
09:32PM 34.5610 -112.8160 261° West 416 479 32,000  Level FlightAware
09:33PM 34.5460 -112.9190 260° West 415 478 32,000  Level FlightAware
09:34PM 34.5340 -113.0080 261° West 415 478 32,000  Level FlightAware
09:35PM 34.5200 -113.1050 260° West 416 479 32,000  Level FlightAware
09:35PM 34.5090 -113.1830 260° West 416 479 32,000  Level FlightAware
09:36PM 34.4810 -113.3750 260° West 417 480 32,000  Level FlightAware
09:37PM 34.4640 -113.4960 260° West 415 478 32,000  Level FlightAware
09:38PM 34.4530 -113.5710 260° West 414 476 32,000  Level FlightAware
09:39PM 34.4330 -113.7100 260° West 413 475 32,000  Level FlightAware
09:39PM 34.4220 -113.7830 260° West 414 476 32,000  Level FlightAware
09:40PM 34.4020 -113.9190 260° West 32,000  Level FlightAware
09:41PM 34.3940 -113.9710 259° West 416 479 32,000  Level FlightAware
09:42PM 34.3830 -114.0440 260° West 415 478 32,000  Level FlightAware
09:42PM 34.3600 -114.2020 260° West 416 479 32,000  Level FlightAware
09:43PM 34.3470 -114.2830 259° West 416 479 32,000  Level FlightAware
09:44PM 34.3280 -114.4070 260° West 417 480 32,000  Level FlightAware
09:45PM 34.3150 -114.4850 259° West 417 480 32,000  Level FlightAware
09:45PM 34.3030 -114.5630 259° West 417 480 32,000  Level FlightAware
09:46PM 34.2900 -114.6410 259° West 417 480 32,000  Level FlightAware
09:47PM 34.2750 -114.7390 260° West 417 480 32,000  Level FlightAware
09:47PM 34.2520 -114.8980 260° West 415 478 32,000  Level FlightAware
09:48PM 34.2380 -114.9880 259° West 415 478 32,000  Level FlightAware
09:49PM 34.2230 -115.0850 259° West 414 476 32,000  Level FlightAware
09:50PM 34.2080 -115.1790 259° West 415 478 32,000  Level FlightAware
09:50PM 34.1950 -115.2630 259° West 415 478 32,000  Level FlightAware
09:51PM 34.1760 -115.3770 259° West 416 479 32,000 -180 Level FlightAware
09:52PM 34.1620 -115.4650 259° West 410 472 31,800 -780 Descending FlightAware
09:52PM 34.1460 -115.5620 259° West 386 444 30,900 -1,200 Descending FlightAware
09:53PM 34.1330 -115.6450 259° West 382 440 30,100 -1,140 Descending FlightAware
09:54PM 34.1170 -115.7400 259° West 374 430 29,300 -1,020 Descending FlightAware
09:54PM 34.1050 -115.8170 259° West 370 426 28,700 -1,020 Descending FlightAware
09:55PM 34.0920 -115.9100 260° West 365 420 27,900 -1,020 Descending FlightAware
09:56PM 34.0800 -115.9880 259° West 360 414 27,300 -1,020 Descending FlightAware
09:57PM 34.0680 -116.0680 260° West 355 409 26,600 -1,080 Descending FlightAware
09:57PM 34.0560 -116.1450 259° West 354 407 25,900 -1,080 Descending FlightAware
09:58PM 34.0430 -116.2360 260° West 353 406 25,100 -1,020 Descending FlightAware
09:59PM 34.0300 -116.3190 259° West 355 409 24,400 -1,020 Descending FlightAware
09:59PM 34.0190 -116.3970 260° West 352 405 23,700 -1,020 Descending FlightAware
10:00PM 34.0070 -116.4750 260° West 348 400 23,100 -1,020 Descending FlightAware
10:01PM 33.9990 -116.5610 264° West 340 391 22,300 -1,080 Descending FlightAware
10:01PM 33.9930 -116.6370 265° West 334 384 21,600 -1,020 Descending FlightAware
10:02PM 33.9870 -116.7110 264° West 333 383 21,000 -1,020 Descending FlightAware
10:03PM 33.9810 -116.7910 265° West 333 383 20,200 -1,020 Descending FlightAware
10:04PM 33.9750 -116.8650 264° West 331 381 19,600 -1,020 Descending FlightAware
10:04PM 33.9680 -116.9480 264° West 328 377 18,800 -1,080 Descending FlightAware
10:05PM 33.9620 -117.0220 264° West 324 373 18,100 -1,140 Descending FlightAware
10:06PM 33.9560 -117.0910 264° West 320 368 17,300 -1,200 Descending FlightAware
10:06PM 33.9500 -117.1680 265° West 317 365 16,400 -1,320 Descending FlightAware
10:07PM 33.9430 -117.2400 263° West 315 362 15,500 -1,320 Descending FlightAware
10:08PM 33.9370 -117.3120 264° West 312 359 14,700 -1,200 Descending FlightAware
10:09PM 33.9450 -117.4120 276° West 306 352 13,500 -1,200 Descending FlightAware
10:09PM 33.9670 -117.4740 293° West 302 348 12,700 -1,200 Descending FlightAware
10:10PM 33.9890 -117.5360 293° West 294 338 11,900 -1,140 Descending FlightAware
10:11PM 34.0110 -117.6030 292° West 300 345 11,100 -1,140 Descending FlightAware
10:11PM 34.0080 -117.6690 267° West 300 345 10,300 -1,200 Descending FlightAware
10:12PM 34.0050 -117.7040 264° West 296 341 9,800 -1,440 Descending FlightAware
10:12PM 33.9990 -117.7670 263° West 289 333 8,900 -1,500 Descending FlightAware
10:13PM 33.9950 -117.8090 263° West 285 328 8,300 -1,440 Descending FlightAware
10:13PM 33.9900 -117.8560 263° West 282 325 7,600 -1,320 Descending FlightAware
10:14PM 33.9860 -117.8920 262° West 279 321 7,100 -1,140 Descending FlightAware
10:14PM 33.9820 -117.9380 264° West 270 311 6,600 -1,020 Descending FlightAware
10:15PM 33.9770 -117.9830 262° West 255 293 6,100 -1,020 Descending FlightAware
10:15PM 33.9740 -118.0160 264° West 239 275 5,700 -900 Descending FlightAware
10:15PM 33.9720 -118.0370 263° West 227 261 5,500 -840 Descending FlightAware
10:16PM 33.9690 -118.0720 264° West 210 242 5,100 -1,020 Descending FlightAware
10:16PM 33.9660 -118.0990 262° West 193 222 4,600 -1,140 Descending FlightAware
10:17PM 33.9630 -118.1300 263° West 180 207 4,100 -1,020 Descending FlightAware
10:17PM 33.9600 -118.1560 262° West 179 206 3,700 -900 Descending FlightAware
10:18PM 33.9590 -118.1700 265° West 178 205 3,500 -840 Descending FlightAware
10:18PM 33.9560 -118.1970 262° West 178 205 3,100 -900 Descending FlightAware
10:18PM 33.9540 -118.2220 264° West 176 203 2,700 -1,020 Descending FlightAware
10:19PM 33.9510 -118.2510 263° West 165 190 2,200 -840 Descending FlightAware
10:19PM 33.9490 -118.2680 262° West 148 170 2,000 -480 Descending FlightAware
10:20PM 33.9480 -118.2770 262° West 144 166 1,800 -480 Descending FlightAware
10:20PM 33.9460 -118.2970 263° West 143 165 1,500 -660 Descending FlightAware
10:21PM 33.9440 -118.3140 262° West 144 166 1,200 -780 Descending FlightAware
10:22PM 33.9400 -118.3580 264° West 149 171 600 -780 Descending FlightAware
10:22PM 33.9380 -118.3740 261° West 146 168 300 -480 Descending FlightAware
10:22PM 33.9360 -118.3970 264° West 146 168 200 -240 Descending FlightAware